Time;durP1;ratioP1;P1;durP2;ratioP2;P2;SDS_P1;SDS_P2;PMS_P1;PMS_P2;Temp;Humidity;BMP_temperature;BMP_pressure;BME280_temperature;BME280_humidity;BME280_pressure;Samples;Min_cycle;Max_cycle;Signal;HPM_P1;HPM_P2
2023/01/15 00:00:56;;;;;;;0.80;0.80;;;9.40;99.90;;;;;;2030035;29;20040;-72
2023/01/15 00:01:57;;;;;;;0.90;0.90;;;9.50;99.90;;;;;;2045104;29;20118;-74
2023/01/15 00:02:57;;;;;;;0.93;0.90;;;9.50;99.90;;;;;;2037118;29;20396;-75
2023/01/15 00:03:58;;;;;;;0.80;0.80;;;9.60;99.90;;;;;;2037318;29;20778;-74
2023/01/15 00:05:02;;;;;;;1.77;0.80;;;9.70;99.90;;;;;;2043752;28;20490;-72
2023/01/15 00:06:02;;;;;;;0.90;0.90;;;9.70;99.90;;;;;;2045511;29;20047;-75
2023/01/15 00:07:03;;;;;;;0.80;0.80;;;9.90;99.90;;;;;;2046051;29;20479;-79
2023/01/15 00:08:04;;;;;;;0.90;0.90;;;9.90;99.90;;;;;;2045592;28;20039;-79
2023/01/15 00:09:06;;;;;;;0.93;0.75;;;9.90;99.90;;;;;;2045793;29;20143;-79
2023/01/15 00:10:07;;;;;;;0.80;0.80;;;10.00;99.90;;;;;;2043738;29;20023;-78
2023/01/15 00:11:08;;;;;;;1.55;0.77;;;10.00;99.90;;;;;;2045812;29;20059;-78
2023/01/15 00:12:08;;;;;;;0.82;0.80;;;10.00;99.90;;;;;;2045835;29;20406;-77
2023/01/15 00:13:10;;;;;;;0.80;0.80;;;10.00;99.90;;;;;;2045922;29;20645;-78
2023/01/15 00:14:11;;;;;;;0.80;0.80;;;10.10;99.90;;;;;;2045743;29;20043;-77
2023/01/15 00:15:12;;;;;;;0.88;0.88;;;10.10;99.90;;;;;;2044054;29;20055;-77
2023/01/15 00:16:16;;;;;;;2.72;1.00;;;10.10;99.90;;;;;;2037447;29;20040;-76
2023/01/15 00:17:16;;;;;;;0.70;0.70;;;10.10;99.90;;;;;;2037626;29;20032;-79
2023/01/15 00:18:17;;;;;;;0.88;0.88;;;10.20;99.90;;;;;;2045791;29;20386;-78
2023/01/15 00:19:17;;;;;;;0.85;0.85;;;10.20;99.90;;;;;;2045837;29;20497;-78
2023/01/15 00:20:18;;;;;;;0.93;0.90;;;10.20;99.90;;;;;;2043549;29;20035;-77
2023/01/15 00:21:20;;;;;;;0.90;0.90;;;10.20;99.90;;;;;;2044926;28;20046;-77
2023/01/15 00:22:20;;;;;;;1.10;1.00;;;10.20;99.90;;;;;;2045519;29;20047;-77
2023/01/15 00:27:37;;;;;;;0.80;0.80;;;10.20;99.90;;;;;;2045695;29;20082;-77
2023/01/15 00:27:39;;;;;;;0.80;0.80;;;10.20;99.90;;;;;;2039362;29;20047;-79
2023/01/15 00:28:40;;;;;;;0.80;0.80;;;10.30;99.90;;;;;;2037554;29;20035;-80
2023/01/15 00:29:43;;;;;;;0.80;0.80;;;10.30;99.90;;;;;;2043566;29;20491;-79
2023/01/15 00:30:45;;;;;;;1.10;0.90;;;10.30;99.90;;;;;;2045519;29;20111;-79
2023/01/15 00:32:01;;;;;;;0.80;0.80;;;10.30;99.90;;;;;;2045482;29;20878;-79
2023/01/15 00:33:01;;;;;;;0.73;0.73;;;10.30;99.90;;;;;;2041901;29;20118;-78
2023/01/15 00:34:02;;;;;;;0.80;0.80;;;10.30;99.90;;;;;;2045662;29;20490;-78
2023/01/15 00:35:04;;;;;;;0.80;0.80;;;10.20;99.90;;;;;;2039852;28;20513;-79
2023/01/15 00:36:04;;;;;;;1.35;0.90;;;10.20;99.90;;;;;;2037557;29;20040;-78
2023/01/15 00:37:05;;;;;;;0.95;0.80;;;10.20;99.90;;;;;;2044887;29;20055;-78
2023/01/15 00:38:06;;;;;;;1.30;1.00;;;10.20;99.90;;;;;;2044122;28;20058;-79
2023/01/15 00:39:07;;;;;;;0.90;0.80;;;10.20;99.90;;;;;;2045139;29;20095;-78
2023/01/15 00:40:08;;;;;;;1.70;1.20;;;10.30;99.90;;;;;;2043982;29;20050;-78
2023/01/15 00:41:09;;;;;;;0.80;0.80;;;10.30;99.90;;;;;;2045863;29;20049;-77
2023/01/15 00:42:12;;;;;;;2.05;1.20;;;10.30;99.90;;;;;;2037024;29;20066;-77
2023/01/15 00:43:13;;;;;;;1.05;0.90;;;10.30;99.90;;;;;;2038148;29;20062;-77
2023/01/15 00:44:13;;;;;;;1.10;1.00;;;10.30;99.90;;;;;;2037586;29;20031;-78
2023/01/15 00:45:14;;;;;;;2.70;2.30;;;10.30;99.90;;;;;;2034362;29;20074;-78
2023/01/15 00:46:14;;;;;;;2.78;1.60;;;10.30;99.90;;;;;;2038427;29;20055;-78
2023/01/15 00:47:15;;;;;;;2.00;1.70;;;10.30;99.90;;;;;;2038108;29;20130;-78
2023/01/15 00:48:15;;;;;;;1.27;1.17;;;10.30;99.90;;;;;;2047000;29;20114;-77
2023/01/15 00:49:16;;;;;;;2.10;1.30;;;10.20;99.90;;;;;;2047056;29;20027;-78
2023/01/15 00:50:17;;;;;;;0.85;0.85;;;10.30;99.90;;;;;;2045130;29;20040;-78
2023/01/15 00:51:17;;;;;;;1.00;0.90;;;10.30;99.90;;;;;;2031298;29;20051;-79
2023/01/15 00:52:18;;;;;;;2.00;1.60;;;10.30;99.90;;;;;;2030646;29;20046;-75
2023/01/15 00:53:18;;;;;;;1.48;1.10;;;10.30;99.90;;;;;;2045820;28;20042;-77
2023/01/15 00:54:19;;;;;;;1.95;1.60;;;10.30;99.90;;;;;;2047239;29;20886;-76
2023/01/15 00:55:20;;;;;;;1.13;1.00;;;10.30;99.90;;;;;;2045177;29;20041;-76
2023/01/15 00:56:20;;;;;;;0.90;0.90;;;10.20;99.90;;;;;;2038357;29;20035;-75
2023/01/15 00:57:21;;;;;;;1.75;1.50;;;10.20;99.90;;;;;;2038135;29;20042;-74
2023/01/15 00:58:23;;;;;;;1.10;1.00;;;10.20;99.90;;;;;;2045839;29;20086;-76
2023/01/15 00:59:24;;;;;;;0.90;0.90;;;10.20;99.90;;;;;;2038504;29;20035;-76
2023/01/15 01:00:25;;;;;;;1.08;0.90;;;10.30;99.90;;;;;;2028571;29;20032;-76
2023/01/15 01:01:26;;;;;;;1.77;1.30;;;10.20;99.90;;;;;;2038501;29;20043;-76
2023/01/15 01:02:27;;;;;;;1.15;0.95;;;10.30;99.90;;;;;;2047006;29;20071;-76
2023/01/15 01:03:28;;;;;;;1.30;1.20;;;10.30;99.90;;;;;;2046817;28;20019;-77
2023/01/15 01:04:28;;;;;;;1.13;1.02;;;10.30;99.90;;;;;;2036071;29;20602;-76
2023/01/15 01:05:31;;;;;;;0.85;0.85;;;10.30;99.90;;;;;;2029830;29;20155;-76
2023/01/15 01:06:31;;;;;;;1.30;1.20;;;10.20;99.90;;;;;;2037911;29;20102;-75
2023/01/15 01:07:33;;;;;;;0.90;0.90;;;10.30;99.90;;;;;;2038538;29;20070;-75
2023/01/15 01:08:34;;;;;;;1.90;1.00;;;10.30;99.90;;;;;;2046895;29;20039;-75
2023/01/15 01:09:35;;;;;;;0.80;0.80;;;10.30;99.90;;;;;;2036029;29;20799;-75
2023/01/15 01:10:36;;;;;;;0.85;0.85;;;10.40;99.90;;;;;;2038565;29;20024;-75
2023/01/15 01:11:36;;;;;;;1.00;0.90;;;10.40;99.90;;;;;;2038060;29;20035;-75
2023/01/15 01:12:37;;;;;;;0.90;0.90;;;10.50;99.90;;;;;;2037809;29;20095;-75
2023/01/15 01:13:38;;;;;;;1.20;1.10;;;10.50;99.90;;;;;;2046301;28;20027;-75
2023/01/15 01:14:38;;;;;;;0.70;0.70;;;10.50;99.90;;;;;;2046314;28;20046;-74
2023/01/15 01:15:39;;;;;;;0.60;0.60;;;10.60;99.90;;;;;;2051950;28;20023;-75
2023/01/15 01:16:41;;;;;;;0.85;0.82;;;10.60;99.90;;;;;;2046881;29;20027;-74
2023/01/15 01:17:41;;;;;;;1.00;1.00;;;10.60;99.90;;;;;;2038190;29;20127;-74
2023/01/15 01:18:42;;;;;;;1.05;0.98;;;10.70;99.90;;;;;;2038197;29;20035;-76
2023/01/15 01:19:42;;;;;;;0.90;0.90;;;10.70;99.90;;;;;;2044997;29;20043;-75
2023/01/15 01:20:43;;;;;;;0.80;0.80;;;10.70;99.90;;;;;;2046964;29;20043;-75
2023/01/15 01:21:44;;;;;;;0.70;0.70;;;10.70;99.90;;;;;;2046787;29;20019;-75
2023/01/15 01:22:47;;;;;;;1.13;0.80;;;10.70;99.90;;;;;;2046960;29;20023;-75
2023/01/15 01:23:48;;;;;;;0.93;0.88;;;10.70;99.90;;;;;;2038324;29;20023;-74
2023/01/15 01:24:48;;;;;;;0.80;0.80;;;10.70;99.90;;;;;;2036444;29;20046;-75
2023/01/15 01:25:49;;;;;;;0.63;0.63;;;10.70;99.90;;;;;;2039221;29;20062;-74
2023/01/15 01:26:50;;;;;;;0.80;0.80;;;10.70;99.90;;;;;;2046338;29;20097;-75
2023/01/15 01:27:51;;;;;;;1.00;1.00;;;10.70;99.90;;;;;;2038080;29;20851;-75
2023/01/15 01:28:52;;;;;;;0.60;0.60;;;10.70;99.90;;;;;;2038295;29;20030;-74
2023/01/15 01:29:53;;;;;;;0.80;0.80;;;10.70;99.90;;;;;;2036141;29;20119;-75
2023/01/15 01:30:53;;;;;;;0.60;0.60;;;10.70;99.90;;;;;;2030418;29;20072;-75
2023/01/15 01:31:54;;;;;;;0.70;0.70;;;10.70;99.90;;;;;;2038043;29;20046;-75
2023/01/15 01:32:54;;;;;;;0.70;0.70;;;10.70;99.90;;;;;;2046667;29;20110;-75
2023/01/15 01:33:57;;;;;;;0.75;0.75;;;10.80;99.90;;;;;;2046474;29;20518;-76
2023/01/15 01:34:59;;;;;;;1.15;0.90;;;10.80;99.90;;;;;;2049031;28;20023;-76
2023/01/15 01:36:00;;;;;;;0.80;0.80;;;10.80;99.90;;;;;;2047090;28;20159;-76
2023/01/15 01:37:00;;;;;;;0.70;0.70;;;10.80;99.90;;;;;;2046835;29;20541;-75
2023/01/15 01:38:01;;;;;;;0.68;0.60;;;10.80;99.90;;;;;;2045629;29;20029;-75
2023/01/15 01:39:04;;;;;;;0.75;0.75;;;10.80;99.90;;;;;;2038102;29;20028;-76
2023/01/15 01:40:05;;;;;;;0.73;0.73;;;10.80;99.90;;;;;;2029856;29;20036;-76
2023/01/15 01:41:06;;;;;;;0.73;0.73;;;10.80;99.90;;;;;;2030632;29;20040;-76
2023/01/15 01:42:15;;;;;;;0.75;0.70;;;10.80;99.90;;;;;;2045471;29;20149;-76
2023/01/15 01:43:22;;;;;;;0.70;0.70;;;10.80;99.90;;;;;;2038103;29;20123;-76
2023/01/15 01:44:32;;;;;;;1.40;0.70;;;10.80;99.90;;;;;;2038903;29;20039;-76
2023/01/15 01:45:34;;;;;;;1.00;0.80;;;10.80;99.90;;;;;;2035976;29;20511;-76
2023/01/15 01:46:35;;;;;;;0.98;0.70;;;10.80;99.90;;;;;;2038224;29;20035;-76
2023/01/15 01:47:36;;;;;;;0.80;0.80;;;10.70;99.90;;;;;;2045917;29;20069;-76
2023/01/15 01:48:37;;;;;;;0.70;0.70;;;10.80;99.90;;;;;;2037552;29;20036;-77
2023/01/15 01:49:39;;;;;;;0.73;0.73;;;10.70;99.90;;;;;;2036174;29;20027;-76
2023/01/15 01:50:41;;;;;;;0.60;0.60;;;10.80;99.90;;;;;;2046204;28;20031;-76
2023/01/15 01:51:48;;;;;;;0.60;0.60;;;10.80;99.90;;;;;;2037833;29;20035;-76
2023/01/15 01:52:54;;;;;;;0.60;0.60;;;10.80;99.90;;;;;;2036914;29;20050;-76
2023/01/15 01:53:57;;;;;;;0.75;0.75;;;10.80;99.90;;;;;;2038102;29;20035;-77
2023/01/15 01:55:00;;;;;;;0.70;0.70;;;10.90;99.90;;;;;;2036923;29;20134;-77
2023/01/15 01:56:01;;;;;;;1.05;0.75;;;10.90;99.90;;;;;;2038513;29;20031;-76
2023/01/15 01:57:04;;;;;;;0.70;0.70;;;10.90;99.90;;;;;;2041059;28;20035;-76
2023/01/15 01:58:08;;;;;;;0.68;0.68;;;10.90;99.90;;;;;;2047041;28;20023;-76
2023/01/15 01:59:09;;;;;;;0.73;0.70;;;10.90;99.90;;;;;;2045868;29;20074;-76
2023/01/15 02:00:12;;;;;;;0.70;0.70;;;10.90;99.90;;;;;;2037931;29;20051;-76
2023/01/15 02:01:16;;;;;;;1.10;0.80;;;10.90;99.90;;;;;;2038914;29;20035;-76
2023/01/15 02:02:20;;;;;;;0.60;0.60;;;10.80;99.90;;;;;;2036076;29;20617;-76
2023/01/15 02:03:25;;;;;;;0.60;0.60;;;10.80;99.90;;;;;;2038696;29;20032;-76
2023/01/15 02:04:27;;;;;;;0.70;0.70;;;10.90;99.90;;;;;;2046614;29;20035;-76
2023/01/15 02:05:31;;;;;;;0.60;0.60;;;10.90;99.90;;;;;;2045972;29;20780;-76
2023/01/15 02:06:33;;;;;;;0.60;0.60;;;10.90;99.90;;;;;;2038128;29;20047;-76
2023/01/15 02:07:34;;;;;;;0.65;0.65;;;10.90;99.90;;;;;;2036471;29;20016;-75
2023/01/15 02:08:38;;;;;;;0.70;0.70;;;11.00;99.90;;;;;;2046398;29;20027;-76
2023/01/15 02:09:38;;;;;;;1.25;0.85;;;11.00;99.90;;;;;;2046350;29;20027;-76
2023/01/15 02:10:40;;;;;;;0.80;0.80;;;11.00;99.90;;;;;;2037096;29;20603;-75
2023/01/15 02:11:41;;;;;;;0.93;0.80;;;11.00;99.90;;;;;;2037615;29;20027;-76
2023/01/15 02:12:49;;;;;;;0.77;0.70;;;11.00;99.90;;;;;;2043668;29;20031;-77
2023/01/15 02:14:13;;;;;;;0.70;0.70;;;11.00;99.90;;;;;;2046751;29;20019;-76
2023/01/15 02:15:20;;;;;;;0.70;0.70;;;11.00;99.90;;;;;;2030323;29;20047;-76
2023/01/15 02:16:31;;;;;;;0.60;0.60;;;11.00;99.90;;;;;;2031850;29;20044;-76
2023/01/15 02:17:41;;;;;;;1.27;0.80;;;11.00;99.90;;;;;;2041136;29;20549;-76
2023/01/15 02:19:18;;;;;;;0.80;0.80;;;11.00;99.90;;;;;;2025446;29;20399;-76
2023/01/15 02:20:31;;;;;;;0.70;0.70;;;11.00;99.90;;;;;;2031651;29;20035;-76
2023/01/15 02:22:10;;;;;;;0.70;0.70;;;11.00;99.90;;;;;;2033595;29;20036;-77
2023/01/15 02:23:44;;;;;;;0.90;0.88;;;11.00;99.90;;;;;;2021693;29;20052;-76
2023/01/15 02:25:07;;;;;;;0.80;0.80;;;10.90;99.90;;;;;;2037901;29;20034;-76
2023/01/15 02:26:29;;;;;;;0.70;0.70;;;10.90;99.90;;;;;;2040676;28;20080;-76
2023/01/15 02:27:30;;;;;;;0.80;0.80;;;11.00;99.90;;;;;;2035972;29;20557;-76
2023/01/15 02:28:37;;;;;;;1.10;0.82;;;11.00;99.90;;;;;;2037743;29;20035;-76
2023/01/15 02:29:47;;;;;;;0.70;0.70;;;11.00;99.90;;;;;;2045561;29;20069;-77
2023/01/15 02:30:57;;;;;;;0.70;0.70;;;11.00;99.90;;;;;;2045797;29;20118;-76
2023/01/15 02:32:02;;;;;;;1.80;0.90;;;11.10;99.90;;;;;;2029854;29;20123;-77
2023/01/15 02:33:12;;;;;;;0.90;0.80;;;11.10;99.90;;;;;;2030571;29;20502;-76
2023/01/15 02:34:21;;;;;;;1.35;0.80;;;11.10;99.90;;;;;;2037880;29;20036;-77
2023/01/15 02:35:36;;;;;;;0.80;0.75;;;11.10;99.90;;;;;;2038939;29;20044;-76
2023/01/15 02:36:42;;;;;;;0.88;0.77;;;11.10;99.90;;;;;;2032356;29;20123;-76
2023/01/15 02:37:53;;;;;;;0.80;0.80;;;11.10;99.90;;;;;;2041711;28;20078;-76
2023/01/15 02:39:00;;;;;;;0.70;0.70;;;11.10;99.90;;;;;;2045614;28;20413;-76
2023/01/15 02:40:04;;;;;;;0.70;0.70;;;11.10;99.90;;;;;;2043522;29;20122;-76
2023/01/15 02:41:15;;;;;;;0.80;0.80;;;11.10;99.90;;;;;;2045674;29;20086;-76
2023/01/15 02:42:18;;;;;;;0.80;0.80;;;11.10;99.90;;;;;;2037500;29;20028;-75
2023/01/15 02:43:22;;;;;;;1.40;0.70;;;11.10;99.90;;;;;;2030271;29;20042;-76
2023/01/15 02:44:25;;;;;;;0.80;0.80;;;11.10;99.90;;;;;;2029636;29;20040;-75
2023/01/15 02:45:35;;;;;;;0.70;0.70;;;11.10;99.90;;;;;;2026631;29;20651;-75
2023/01/15 02:46:43;;;;;;;0.60;0.60;;;11.10;99.90;;;;;;2034023;29;20127;-75
2023/01/15 02:47:46;;;;;;;0.65;0.65;;;11.20;99.90;;;;;;2037698;29;20094;-75
2023/01/15 02:48:52;;;;;;;0.80;0.80;;;11.20;99.90;;;;;;2045323;29;20039;-75
2023/01/15 02:49:58;;;;;;;1.40;0.70;;;11.20;99.90;;;;;;2037758;29;20118;-75
2023/01/15 02:51:11;;;;;;;0.70;0.70;;;11.20;99.90;;;;;;2037687;29;20028;-75
2023/01/15 02:52:20;;;;;;;0.70;0.70;;;11.20;99.90;;;;;;2036570;29;20046;-75
2023/01/15 02:53:25;;;;;;;0.70;0.70;;;11.20;99.90;;;;;;2045247;29;20069;-75
2023/01/15 02:54:33;;;;;;;0.77;0.77;;;11.20;99.90;;;;;;2039109;29;20510;-75
2023/01/15 02:55:39;;;;;;;1.00;0.80;;;11.20;99.90;;;;;;2037722;29;20497;-74
2023/01/15 02:56:43;;;;;;;0.73;0.70;;;11.20;99.90;;;;;;2035577;29;20594;-76
2023/01/15 02:57:45;;;;;;;1.05;0.80;;;11.20;99.90;;;;;;2026305;29;20111;-76
2023/01/15 02:58:50;;;;;;;0.70;0.70;;;11.20;99.90;;;;;;2029862;29;20028;-76
2023/01/15 02:59:53;;;;;;;0.63;0.63;;;11.10;99.90;;;;;;2037776;29;20063;-76
2023/01/15 03:01:00;;;;;;;1.08;0.77;;;11.10;99.90;;;;;;2037326;29;20489;-76
2023/01/15 03:02:03;;;;;;;0.73;0.65;;;11.10;99.90;;;;;;2043562;28;20540;-76
2023/01/15 03:03:09;;;;;;;0.70;0.70;;;11.10;99.90;;;;;;2037350;29;20135;-76
2023/01/15 03:04:39;;;;;;;0.70;0.70;;;11.10;99.90;;;;;;2030198;29;20039;-77
2023/01/15 03:05:47;;;;;;;0.60;0.60;;;11.20;99.90;;;;;;2025528;29;20130;-76
2023/01/15 03:06:58;;;;;;;0.70;0.70;;;11.20;99.90;;;;;;2028853;29;20044;-76
2023/01/15 03:08:06;;;;;;;0.70;0.70;;;11.10;99.90;;;;;;2038556;29;20036;-76
2023/01/15 03:09:09;;;;;;;1.38;0.70;;;11.20;99.90;;;;;;2029776;29;20110;-76
2023/01/15 03:10:10;;;;;;;0.70;0.70;;;11.20;99.90;;;;;;2036729;29;20087;-76
2023/01/15 03:11:14;;;;;;;0.70;0.70;;;11.20;99.90;;;;;;2037741;29;20040;-76
2023/01/15 03:13:00;;;;;;;0.60;0.60;;;11.20;99.90;;;;;;2029704;29;20084;-76
2023/01/15 03:14:13;;;;;;;0.73;0.73;;;11.20;99.90;;;;;;2035016;29;20087;-76
2023/01/15 03:16:33;;;;;;;0.60;0.60;;;11.20;99.90;;;;;;2024533;29;20032;-76
2023/01/15 03:17:06;;;;;;;0.88;0.88;;;11.20;99.90;;;;;;2026606;29;20028;-76
2023/01/15 03:18:11;;;;;;;0.60;0.60;;;11.20;99.90;;;;;;2033585;29;20035;-76
2023/01/15 03:19:15;;;;;;;0.60;0.60;;;11.20;99.90;;;;;;2045836;29;20035;-76
2023/01/15 03:20:26;;;;;;;1.20;0.70;;;11.30;99.90;;;;;;2037473;29;20039;-75
2023/01/15 03:21:34;;;;;;;0.60;0.60;;;11.30;99.90;;;;;;2043429;29;20062;-76
2023/01/15 03:22:39;;;;;;;0.60;0.60;;;11.30;99.90;;;;;;2045232;29;20035;-76
2023/01/15 03:23:44;;;;;;;0.70;0.70;;;11.30;99.90;;;;;;2045562;29;20023;-77
2023/01/15 03:24:51;;;;;;;0.98;0.88;;;11.30;99.90;;;;;;2045157;29;20098;-76
2023/01/15 03:25:53;;;;;;;0.85;0.63;;;11.30;99.90;;;;;;2036801;29;20062;-75
2023/01/15 03:26:54;;;;;;;0.60;0.60;;;11.30;99.90;;;;;;2034975;29;20031;-75
2023/01/15 03:27:59;;;;;;;0.70;0.70;;;11.30;99.90;;;;;;2045524;28;20494;-77
2023/01/15 03:29:04;;;;;;;0.70;0.70;;;11.40;99.90;;;;;;2045457;29;20892;-77
2023/01/15 03:30:17;;;;;;;0.68;0.68;;;11.40;99.90;;;;;;2045345;29;20031;-76
2023/01/15 03:31:17;;;;;;;0.60;0.60;;;11.40;99.90;;;;;;2035536;29;20039;-73
2023/01/15 03:32:20;;;;;;;0.65;0.65;;;11.40;99.90;;;;;;2037734;29;20039;-75
2023/01/15 03:33:20;;;;;;;0.80;0.70;;;11.50;99.90;;;;;;2046189;28;20707;-75
2023/01/15 03:34:21;;;;;;;0.60;0.60;;;11.50;99.90;;;;;;2046710;29;20035;-75
2023/01/15 03:35:52;;;;;;;0.70;0.70;;;11.50;99.90;;;;;;2046645;29;20482;-75
2023/01/15 03:37:05;;;;;;;0.60;0.60;;;11.50;99.90;;;;;;2043540;28;20039;-75
2023/01/15 03:38:06;;;;;;;1.05;0.60;;;11.40;99.90;;;;;;2045584;29;20050;-75
2023/01/15 03:39:07;;;;;;;1.23;1.13;;;11.40;99.90;;;;;;2045930;29;20039;-76
2023/01/15 03:40:21;;;;;;;0.90;0.90;;;11.40;99.90;;;;;;2037770;29;20071;-75
2023/01/15 03:41:30;;;;;;;0.90;0.70;;;11.40;99.90;;;;;;2027673;29;20039;-75
2023/01/15 03:42:48;;;;;;;0.90;0.90;;;11.40;99.90;;;;;;2030556;29;20040;-75
2023/01/15 03:44:16;;;;;;;0.80;0.80;;;11.40;99.90;;;;;;2031428;29;20527;-76
2023/01/15 03:45:31;;;;;;;0.60;0.60;;;11.40;99.90;;;;;;2027636;29;20036;-75
2023/01/15 03:46:51;;;;;;;0.70;0.70;;;11.30;99.90;;;;;;2020327;29;20055;-75
2023/01/15 03:48:08;;;;;;;0.57;0.57;;;11.30;99.90;;;;;;2026486;29;20115;-75
2023/01/15 03:49:33;;;;;;;0.60;0.60;;;11.30;99.90;;;;;;2036211;29;20066;-76
2023/01/15 03:50:47;;;;;;;0.60;0.60;;;11.30;99.90;;;;;;2025741;29;20111;-77
2023/01/15 03:52:13;;;;;;;2.22;0.70;;;11.30;99.90;;;;;;2036797;29;20064;-76
2023/01/15 03:53:32;;;;;;;1.17;0.80;;;11.30;99.90;;;;;;2037550;29;20052;-78
2023/01/15 03:54:56;;;;;;;0.70;0.70;;;11.30;99.90;;;;;;2035225;28;20035;-77
2023/01/15 03:56:18;;;;;;;0.60;0.60;;;11.30;99.90;;;;;;2037212;29;20027;-73
2023/01/15 03:57:28;;;;;;;0.63;0.63;;;11.30;99.90;;;;;;2034446;29;20027;-71
2023/01/15 03:58:38;;;;;;;1.55;0.70;;;11.30;99.90;;;;;;2038097;29;20031;-79
2023/01/15 03:59:52;;;;;;;0.73;0.60;;;11.20;99.90;;;;;;2037508;29;20078;-74
2023/01/15 04:01:00;;;;;;;0.60;0.60;;;11.20;99.90;;;;;;2030588;29;20554;-73
2023/01/15 04:02:06;;;;;;;0.60;0.60;;;11.10;99.90;;;;;;2034880;29;20047;-72
2023/01/15 04:03:09;;;;;;;0.60;0.60;;;11.10;99.90;;;;;;2044936;29;20067;-71
2023/01/15 04:04:12;;;;;;;1.05;0.60;;;11.10;99.90;;;;;;2045388;29;20027;-70
2023/01/15 04:05:14;;;;;;;0.77;0.70;;;11.10;99.90;;;;;;2037300;29;20119;-71
2023/01/15 04:06:16;;;;;;;0.70;0.70;;;11.20;99.90;;;;;;2035597;29;20684;-72
2023/01/15 04:07:17;;;;;;;0.70;0.70;;;11.20;99.90;;;;;;2045303;29;20027;-73
2023/01/15 04:08:18;;;;;;;0.60;0.60;;;11.20;99.90;;;;;;2029266;29;20040;-72
2023/01/15 04:09:22;;;;;;;0.60;0.60;;;11.20;99.90;;;;;;2030203;29;20040;-71
2023/01/15 04:10:26;;;;;;;0.60;0.60;;;11.20;99.90;;;;;;2045157;28;20063;-72
2023/01/15 04:11:27;;;;;;;0.60;0.60;;;11.10;99.90;;;;;;2035297;29;20032;-72
2023/01/15 04:12:37;;;;;;;0.60;0.60;;;11.10;99.90;;;;;;2038491;29;20055;-72
2023/01/15 04:13:41;;;;;;;0.60;0.60;;;11.20;99.90;;;;;;2037231;29;20463;-72
2023/01/15 04:14:49;;;;;;;0.82;0.60;;;11.20;99.90;;;;;;2030494;29;20039;-71
2023/01/15 04:15:53;;;;;;;0.70;0.70;;;11.20;99.90;;;;;;2044958;29;20019;-71
2023/01/15 04:16:54;;;;;;;0.60;0.60;;;11.20;99.90;;;;;;2048578;28;20609;-71
2023/01/15 04:17:57;;;;;;;0.60;0.60;;;11.20;99.90;;;;;;2045617;28;20031;-73
2023/01/15 04:19:00;;;;;;;0.98;0.60;;;11.20;99.90;;;;;;2038660;29;20028;-72
2023/01/15 04:20:04;;;;;;;0.77;0.77;;;11.10;99.90;;;;;;2038405;29;20129;-72
2023/01/15 04:21:04;;;;;;;0.70;0.70;;;11.10;99.90;;;;;;2046462;29;20024;-72
2023/01/15 04:22:09;;;;;;;0.60;0.60;;;11.10;99.90;;;;;;2044453;28;20031;-72
2023/01/15 04:23:10;;;;;;;0.70;0.70;;;11.20;99.90;;;;;;2038481;29;20055;-72
2023/01/15 04:24:10;;;;;;;0.70;0.70;;;11.20;99.90;;;;;;2038163;29;20035;-73
2023/01/15 04:25:11;;;;;;;0.80;0.50;;;11.20;99.90;;;;;;2038804;29;20131;-73
2023/01/15 04:26:12;;;;;;;0.55;0.55;;;11.10;99.90;;;;;;2038840;29;20040;-72
2023/01/15 04:27:12;;;;;;;0.70;0.70;;;11.10;99.90;;;;;;2036879;29;20125;-72
2023/01/15 04:28:13;;;;;;;0.93;0.70;;;11.10;99.90;;;;;;2038786;29;20040;-72
2023/01/15 04:29:14;;;;;;;0.60;0.60;;;11.10;99.90;;;;;;2047289;29;20032;-72
2023/01/15 04:30:16;;;;;;;1.38;0.90;;;11.10;99.90;;;;;;2047053;29;20035;-72
2023/01/15 04:31:17;;;;;;;1.88;1.10;;;11.10;99.90;;;;;;2045108;29;20030;-72
2023/01/15 04:32:18;;;;;;;1.10;1.08;;;11.10;99.90;;;;;;2047435;29;20633;-72
2023/01/15 04:33:18;;;;;;;1.77;0.80;;;11.10;99.90;;;;;;2038563;29;20063;-72
2023/01/15 04:34:19;;;;;;;0.68;0.68;;;11.10;99.90;;;;;;2038630;29;20061;-72
2023/01/15 04:35:19;;;;;;;0.60;0.60;;;11.10;99.90;;;;;;2047075;29;20074;-73
2023/01/15 04:36:20;;;;;;;0.85;0.80;;;11.10;99.90;;;;;;2045239;29;20139;-72
2023/01/15 04:37:20;;;;;;;0.85;0.60;;;11.10;99.90;;;;;;2047365;29;20046;-72
2023/01/15 04:38:21;;;;;;;0.82;0.60;;;11.00;99.90;;;;;;2047145;29;20722;-72
2023/01/15 04:39:22;;;;;;;0.60;0.60;;;11.00;99.90;;;;;;2047219;29;20035;-72
2023/01/15 04:44:20;;;;;;;0.68;0.68;;;11.00;99.90;;;;;;2046929;29;20078;-72
2023/01/15 04:45:21;;;;;;;0.70;0.70;;;11.00;99.90;;;;;;2042629;29;20039;-72
2023/01/15 04:46:23;;;;;;;0.60;0.60;;;11.00;99.90;;;;;;2045024;29;20051;-72
2023/01/15 04:47:23;;;;;;;0.88;0.80;;;11.00;99.90;;;;;;2038746;29;20091;-72
2023/01/15 04:48:24;;;;;;;0.60;0.60;;;11.10;99.90;;;;;;2046346;29;20027;-72
2023/01/15 04:49:26;;;;;;;0.57;0.57;;;11.10;99.90;;;;;;2046578;29;20046;-72
2023/01/15 04:50:26;;;;;;;0.70;0.70;;;11.10;99.90;;;;;;2038437;29;20027;-72
2023/01/15 04:51:27;;;;;;;0.70;0.70;;;11.10;99.90;;;;;;2036700;29;20045;-73
2023/01/15 04:52:27;;;;;;;0.60;0.60;;;11.10;99.90;;;;;;2047177;29;20043;-72
2023/01/15 04:53:28;;;;;;;0.70;0.70;;;11.10;99.90;;;;;;2047352;29;20152;-80
2023/01/15 04:54:29;;;;;;;0.75;0.70;;;11.10;99.90;;;;;;2038481;29;20047;-81
2023/01/15 04:55:30;;;;;;;0.70;0.70;;;11.10;99.90;;;;;;2038725;29;20098;-81
2023/01/15 04:56:31;;;;;;;0.85;0.70;;;11.10;99.90;;;;;;2036476;29;20050;-81
2023/01/15 04:57:32;;;;;;;0.80;0.80;;;11.10;99.90;;;;;;2038982;29;20031;-80
2023/01/15 04:58:33;;;;;;;0.60;0.60;;;11.10;99.90;;;;;;2038467;29;20139;-81
2023/01/15 04:59:33;;;;;;;0.80;0.80;;;11.10;99.90;;;;;;2039247;29;20039;-82
2023/01/15 05:00:34;;;;;;;0.73;0.70;;;11.20;99.90;;;;;;2047241;29;20744;-82
2023/01/15 05:01:35;;;;;;;1.30;1.20;;;11.20;99.90;;;;;;2037532;29;20066;-82
2023/01/15 05:02:36;;;;;;;1.27;1.00;;;11.20;99.90;;;;;;2031869;29;20024;-82
2023/01/15 05:03:36;;;;;;;1.27;0.93;;;11.10;99.90;;;;;;2039182;29;20035;-82
2023/01/15 05:04:37;;;;;;;1.38;1.00;;;11.10;99.90;;;;;;2046999;29;20058;-82
2023/01/15 05:05:37;;;;;;;1.40;1.10;;;11.10;99.90;;;;;;2047615;29;20066;-82
2023/01/15 05:06:38;;;;;;;1.20;1.10;;;11.10;99.90;;;;;;2037513;29;20028;-82
2023/01/15 05:07:39;;;;;;;1.20;1.10;;;11.10;99.90;;;;;;2031381;29;20020;-82
2023/01/15 05:08:39;;;;;;;1.10;1.00;;;11.00;99.90;;;;;;2038534;29;20678;-81
2023/01/15 05:09:40;;;;;;;1.17;1.08;;;11.00;99.90;;;;;;2046474;29;20474;-82
2023/01/15 05:10:40;;;;;;;1.02;0.90;;;10.90;99.90;;;;;;2046659;28;20043;-82
2023/01/15 05:11:41;;;;;;;1.10;1.00;;;10.90;99.90;;;;;;2045380;29;20082;-82
2023/01/15 05:12:41;;;;;;;0.93;0.93;;;10.90;99.90;;;;;;2038582;29;20036;-82
2023/01/15 05:13:42;;;;;;;1.67;1.00;;;10.90;99.90;;;;;;2038709;29;20035;-82
2023/01/15 05:14:43;;;;;;;1.00;1.00;;;10.90;99.90;;;;;;2030862;29;20043;-82
2023/01/15 05:15:45;;;;;;;1.10;1.00;;;10.90;99.90;;;;;;2030113;29;20095;-81
2023/01/15 05:16:45;;;;;;;1.30;1.20;;;10.80;99.90;;;;;;2025336;29;20111;-82
2023/01/15 05:17:46;;;;;;;1.80;1.70;;;10.80;99.90;;;;;;2038582;29;20034;-82
2023/01/15 05:18:47;;;;;;;2.00;1.80;;;10.80;99.90;;;;;;2046086;28;20035;-81
2023/01/15 05:19:47;;;;;;;2.17;1.77;;;10.80;99.90;;;;;;2046935;29;20066;-80
2023/01/15 05:20:48;;;;;;;2.47;2.05;;;10.70;99.90;;;;;;2046924;29;20027;-81
2023/01/15 05:21:50;;;;;;;2.53;2.22;;;10.70;99.90;;;;;;2045564;28;20037;-83
2023/01/15 05:22:50;;;;;;;2.83;2.28;;;10.70;99.90;;;;;;2047402;29;20054;-82
2023/01/15 05:23:54;;;;;;;2.42;2.22;;;10.60;99.90;;;;;;2047443;29;20071;-82
2023/01/15 05:24:55;;;;;;;2.35;2.15;;;10.60;99.90;;;;;;2047315;29;20043;-82
2023/01/15 05:25:55;;;;;;;2.70;2.50;;;10.50;99.90;;;;;;2047448;29;20070;-81
2023/01/15 05:26:57;;;;;;;2.40;2.20;;;10.50;99.90;;;;;;2037305;29;20368;-82
2023/01/15 05:27:57;;;;;;;2.40;2.05;;;10.50;99.90;;;;;;2038832;29;20110;-82
2023/01/15 05:29:00;;;;;;;2.47;2.28;;;10.40;99.90;;;;;;2038786;29;20032;-82
2023/01/15 05:30:00;;;;;;;2.30;2.10;;;10.40;99.90;;;;;;2037923;29;20028;-82
2023/01/15 05:31:09;;;;;;;2.10;1.90;;;10.40;99.90;;;;;;2032850;29;20024;-82
2023/01/15 05:32:09;;;;;;;2.60;2.40;;;10.40;99.90;;;;;;2038188;29;20032;-82
2023/01/15 05:33:10;;;;;;;2.38;2.17;;;10.30;99.90;;;;;;2038988;29;20035;-82
2023/01/15 05:34:10;;;;;;;2.50;2.30;;;10.30;99.90;;;;;;2030485;29;20485;-82
2023/01/15 05:35:11;;;;;;;2.63;2.30;;;10.30;99.90;;;;;;2040286;29;20044;-82
2023/01/15 05:36:15;;;;;;;2.35;2.15;;;10.30;99.90;;;;;;2040431;29;20114;-82
2023/01/15 05:37:15;;;;;;;2.30;2.10;;;10.30;99.90;;;;;;2030791;29;20033;-82
2023/01/15 05:38:16;;;;;;;2.40;2.20;;;10.30;99.90;;;;;;2029555;29;20039;-82
2023/01/15 05:39:16;;;;;;;2.80;2.30;;;10.30;99.90;;;;;;2047962;29;20183;-81
2023/01/15 05:40:17;;;;;;;1.98;1.83;;;10.30;99.90;;;;;;2047504;29;20043;-81
2023/01/15 05:42:38;;;;;;;2.03;1.83;;;10.20;99.90;;;;;;2047391;29;20053;-83
2023/01/15 05:43:38;;;;;;;1.92;1.80;;;10.20;99.90;;;;;;2045196;29;20035;-83
2023/01/15 05:44:39;;;;;;;1.52;1.25;;;10.20;99.90;;;;;;2045600;28;20051;-77